createdAt,value
2022-12-15T00:02:15.430Z,-4.13
2022-12-15T00:05:00.677Z,-4.27
2022-12-15T00:07:45.801Z,-4.16
2022-12-15T00:10:30.884Z,-4.24
2022-12-15T00:13:15.909Z,-4.28
2022-12-15T00:16:01.523Z,-4.36
2022-12-15T00:18:46.812Z,-4.65
2022-12-15T00:21:32.082Z,-4.63
2022-12-15T00:24:17.170Z,-4.49
2022-12-15T00:27:02.514Z,-4.59
2022-12-15T00:29:47.749Z,-4.70
2022-12-15T00:32:32.890Z,-4.57
2022-12-15T00:35:18.405Z,-4.51
2022-12-15T00:38:05.241Z,-4.57
2022-12-15T00:40:32.008Z,-4.43
2022-12-15T00:42:58.637Z,-4.43
2022-12-15T00:45:45.275Z,-4.46
2022-12-15T00:48:11.919Z,-4.49
2022-12-15T00:50:53.739Z,-4.45
2022-12-15T00:53:42.793Z,-4.57
2022-12-15T00:56:28.960Z,-4.55
2022-12-15T00:59:14.727Z,-4.55
2022-12-15T01:01:59.892Z,-4.63
2022-12-15T01:04:45.897Z,-4.60
2022-12-15T01:07:32.255Z,-4.62
2022-12-15T01:10:17.292Z,-4.50
2022-12-15T01:13:03.064Z,-4.49
2022-12-15T01:15:48.217Z,-4.32
2022-12-15T01:18:33.545Z,-4.47
2022-12-15T01:21:02.822Z,-4.63
2022-12-15T01:23:31.466Z,-4.64
2022-12-15T01:25:58.504Z,-4.64
2022-12-15T01:28:25.361Z,-4.50
2022-12-15T01:30:52.393Z,-4.49
2022-12-15T01:33:19.895Z,-4.41
2022-12-15T01:36:03.630Z,-4.46
2022-12-15T01:38:30.400Z,-4.57
2022-12-15T01:41:10.039Z,-4.58
2022-12-15T01:43:39.422Z,-4.53
2022-12-15T01:46:16.084Z,-4.53
2022-12-15T01:48:47.403Z,-4.47
2022-12-15T01:51:40.271Z,-4.44
2022-12-15T01:54:11.929Z,-4.49
2022-12-15T01:56:43.231Z,-4.44
2022-12-15T01:59:15.166Z,-4.43
2022-12-15T02:01:42.013Z,-4.56
2022-12-15T02:04:08.936Z,-4.68
2022-12-15T02:06:36.426Z,-4.75
2022-12-15T02:09:04.329Z,-4.70
2022-12-15T02:12:02.958Z,-4.87
2022-12-15T02:14:37.786Z,-5.11
2022-12-15T02:17:22.238Z,-5.10
2022-12-15T02:19:54.855Z,-5.12
2022-12-15T02:22:31.966Z,-4.98
2022-12-15T02:25:34.914Z,-5.05
2022-12-15T02:28:06.491Z,-5.09
2022-12-15T02:31:10.068Z,-5.03
2022-12-15T02:33:44.863Z,-4.85
2022-12-15T02:36:23.703Z,-4.83
2022-12-15T02:38:50.423Z,-4.48
2022-12-15T02:41:37.485Z,-4.42
2022-12-15T02:44:19.680Z,-4.26
2022-12-15T02:47:14.070Z,-4.09
2022-12-15T02:49:49.776Z,-4.07
2022-12-15T02:52:31.273Z,-3.92
2022-12-15T02:55:03.783Z,-3.96
2022-12-15T02:57:52.319Z,-3.86
2022-12-15T03:00:20.009Z,-3.88
2022-12-15T03:02:52.905Z,-3.88
2022-12-15T03:05:21.594Z,-3.77
2022-12-15T03:07:53.404Z,-3.78
2022-12-15T03:10:23.636Z,-3.80
2022-12-15T03:12:50.727Z,-3.77
2022-12-15T03:15:18.426Z,-3.88
2022-12-15T03:17:45.140Z,-3.96
2022-12-15T03:20:12.135Z,-4.03
2022-12-15T03:22:39.815Z,-4.03
2022-12-15T03:25:06.763Z,-4.05
2022-12-15T03:27:33.499Z,-4.09
2022-12-15T03:30:00.180Z,-4.14
2022-12-15T03:32:26.886Z,-3.93
2022-12-15T03:34:53.574Z,-4.07
2022-12-15T03:37:20.220Z,-4.09
2022-12-15T03:39:47.850Z,-4.11
2022-12-15T03:42:14.482Z,-4.16
2022-12-15T03:44:41.169Z,-4.24
2022-12-15T03:47:07.835Z,-4.31
2022-12-15T03:49:34.513Z,-4.42
2022-12-15T03:52:01.216Z,-4.55
2022-12-15T03:54:27.906Z,-4.58
2022-12-15T03:56:54.593Z,-4.51
2022-12-15T03:59:21.229Z,-4.54
2022-12-15T04:01:49.251Z,-4.62
2022-12-15T04:04:16.302Z,-4.58
2022-12-15T04:06:42.991Z,-4.60
2022-12-15T04:09:09.690Z,-4.63
2022-12-15T04:11:36.437Z,-4.68
2022-12-15T04:14:03.102Z,-4.58
2022-12-15T04:16:29.880Z,-4.58
2022-12-15T04:19:15.092Z,-4.69
2022-12-15T04:21:41.760Z,-4.63
2022-12-15T04:24:27.185Z,-4.66
2022-12-15T04:27:12.193Z,-4.50
2022-12-15T04:29:57.288Z,-4.57
2022-12-15T04:32:42.365Z,-4.49
2022-12-15T04:35:29.595Z,-4.48
2022-12-15T04:38:14.852Z,-4.43
2022-12-15T04:41:00.082Z,-4.45
2022-12-15T04:43:45.294Z,-4.40
2022-12-15T04:46:30.494Z,-4.52
2022-12-15T04:49:15.683Z,-4.51
2022-12-15T04:52:00.877Z,-4.58
2022-12-15T04:54:46.139Z,-4.70
2022-12-15T04:57:31.559Z,-5.00
2022-12-15T05:00:16.629Z,-5.08
2022-12-15T05:03:01.979Z,-5.05
2022-12-15T05:05:47.211Z,-5.18
2022-12-15T05:08:32.461Z,-5.07
2022-12-15T05:11:18.670Z,-5.18
2022-12-15T05:14:03.869Z,-5.10
2022-12-15T05:16:49.177Z,-5.12
2022-12-15T05:19:34.619Z,-5.12
2022-12-15T05:22:19.829Z,-5.19
2022-12-15T05:25:05.044Z,-5.36
2022-12-15T05:27:50.275Z,-5.47
2022-12-15T05:30:38.083Z,-5.51
2022-12-15T05:33:05.901Z,-5.52
2022-12-15T05:35:32.608Z,-5.43
2022-12-15T05:38:00.535Z,-5.41
2022-12-15T05:40:27.243Z,-5.44
2022-12-15T05:42:53.876Z,-5.42
2022-12-15T05:45:21.200Z,-5.49
2022-12-15T05:47:51.819Z,-5.42
2022-12-15T05:50:18.850Z,-5.43
2022-12-15T05:52:49.380Z,-5.39
2022-12-15T05:55:17.384Z,-5.42
2022-12-15T05:57:44.077Z,-5.49
2022-12-15T06:00:11.232Z,-5.52
2022-12-15T06:02:38.027Z,-5.35
2022-12-15T06:05:05.157Z,-5.36
2022-12-15T06:07:31.852Z,-5.45
2022-12-15T06:09:58.826Z,-5.40
2022-12-15T06:15:15.088Z,-5.38
2022-12-15T06:17:41.749Z,-5.33
2022-12-15T06:20:08.729Z,-5.31
2022-12-15T06:22:35.438Z,-5.33
2022-12-15T06:25:02.136Z,-5.36
2022-12-15T06:27:28.896Z,-5.38
2022-12-15T06:29:55.575Z,-5.42
2022-12-15T06:32:22.279Z,-5.35
2022-12-15T06:34:49.615Z,-5.44
2022-12-15T06:37:16.278Z,-5.55
2022-12-15T06:39:42.961Z,-5.64
2022-12-15T06:42:09.697Z,-5.58
2022-12-15T06:44:36.371Z,-5.47
2022-12-15T06:47:03.888Z,-5.47
2022-12-15T06:49:31.972Z,-5.51
2022-12-15T06:51:58.687Z,-5.50
2022-12-15T06:54:25.376Z,-5.42
2022-12-15T06:56:52.251Z,-5.41
2022-12-15T06:59:18.912Z,-5.37
2022-12-15T07:01:45.735Z,-5.32
2022-12-15T07:04:12.851Z,-5.31
2022-12-15T07:06:40.274Z,-5.17
2022-12-15T07:09:11.782Z,-5.36
2022-12-15T07:11:38.473Z,-5.42
2022-12-15T07:14:05.215Z,-5.53
2022-12-15T07:16:32.338Z,-5.49
2022-12-15T07:18:59.177Z,-5.44
2022-12-15T07:21:25.893Z,-5.43
2022-12-15T07:23:55.728Z,-5.38
2022-12-15T07:26:23.750Z,-5.30
2022-12-15T07:28:50.629Z,-5.17
2022-12-15T07:31:17.966Z,-5.01
2022-12-15T07:33:44.966Z,-4.91
2022-12-15T07:36:11.949Z,-4.77
2022-12-15T07:38:38.716Z,-4.69
2022-12-15T07:41:07.981Z,-4.64
2022-12-15T07:43:35.762Z,-4.43
2022-12-15T07:46:03.874Z,-4.44
2022-12-15T07:48:30.803Z,-4.42
2022-12-15T07:51:05.176Z,-4.42
2022-12-15T07:53:36.265Z,-4.40
2022-12-15T07:56:07.905Z,-4.32
2022-12-15T07:58:35.599Z,-4.30
2022-12-15T08:01:04.407Z,-4.21
2022-12-15T08:03:31.774Z,-4.16
2022-12-15T08:06:03.776Z,-4.07
2022-12-15T08:08:31.987Z,-3.95
2022-12-15T08:10:59.151Z,-3.98
2022-12-15T08:14:00.938Z,-4.00
2022-12-15T08:16:18.238Z,-3.93
2022-12-15T08:18:48.951Z,-3.73
2022-12-15T08:21:15.746Z,-3.87
2022-12-15T08:23:42.494Z,-3.88
2022-12-15T08:26:13.002Z,-3.83
2022-12-15T08:28:41.031Z,-3.75
2022-12-15T08:31:10.545Z,-3.77
2022-12-15T08:33:38.082Z,-3.65
2022-12-15T08:36:07.983Z,-3.48
2022-12-15T08:38:36.079Z,-3.45
2022-12-15T08:41:23.770Z,-3.42
2022-12-15T08:43:51.339Z,-3.31
2022-12-15T08:46:21.159Z,-3.13
2022-12-15T08:48:48.574Z,-3.16
2022-12-15T08:51:16.243Z,-3.09
2022-12-15T08:53:43.276Z,-2.99
2022-12-15T08:56:13.534Z,-2.89
2022-12-15T08:58:40.522Z,-2.92
2022-12-15T09:01:15.948Z,-2.82
2022-12-15T09:03:45.666Z,-2.85
2022-12-15T09:06:23.307Z,-2.77
2022-12-15T09:08:50.717Z,-2.74
2022-12-15T09:11:17.858Z,-2.74
2022-12-15T09:13:44.659Z,-2.73
2022-12-15T09:16:14.707Z,-2.67
2022-12-15T09:18:47.796Z,-2.66
2022-12-15T09:21:16.109Z,-2.47
2022-12-15T09:23:43.311Z,-2.50
2022-12-15T09:26:12.552Z,-2.52
2022-12-15T09:28:40.011Z,-2.46
2022-12-15T09:31:15.737Z,-2.29
2022-12-15T09:33:43.916Z,-2.27
2022-12-15T09:36:13.220Z,-2.26
2022-12-15T09:38:41.706Z,-2.23
2022-12-15T09:41:13.292Z,-2.34
2022-12-15T09:44:02.996Z,-2.29
2022-12-15T09:47:00.810Z,-2.25
2022-12-15T09:49:45.756Z,-2.21
2022-12-15T09:52:19.318Z,-2.19
2022-12-15T09:54:46.587Z,-2.07
2022-12-15T09:57:19.350Z,-1.96
2022-12-15T10:00:25.836Z,-1.92
2022-12-15T10:03:02.968Z,-1.89
2022-12-15T10:06:14.767Z,-1.83
2022-12-15T10:08:44.769Z,-1.71
2022-12-15T10:11:18.828Z,-1.47
2022-12-15T10:14:16.241Z,-1.43
2022-12-15T10:17:11.665Z,-1.26
2022-12-15T10:20:20.803Z,-1.25
2022-12-15T10:22:50.353Z,-1.19
2022-12-15T10:25:31.791Z,-1.08
2022-12-15T10:28:37.182Z,-0.95
2022-12-15T10:31:18.224Z,-0.95
2022-12-15T10:33:51.688Z,-0.72
2022-12-15T10:36:18.297Z,-0.58
2022-12-15T10:38:50.578Z,-0.57
2022-12-15T10:41:23.752Z,-0.35
2022-12-15T10:43:52.095Z,-0.28
2022-12-15T10:46:29.692Z,-0.47
2022-12-15T10:48:59.449Z,-0.17
2022-12-15T10:51:31.657Z,-0.41
2022-12-15T10:54:10.680Z,-0.59
2022-12-15T10:57:14.516Z,-0.43
2022-12-15T10:59:41.242Z,-0.49
2022-12-15T11:02:34.025Z,-0.71
2022-12-15T11:05:15.886Z,-0.66
2022-12-15T11:07:52.241Z,-0.82
2022-12-15T11:10:48.799Z,-0.73
2022-12-15T11:13:21.797Z,-0.68
2022-12-15T11:15:56.654Z,-0.61
2022-12-15T11:18:29.323Z,-0.53
2022-12-15T11:21:13.471Z,-0.57
2022-12-15T11:24:04.636Z,-0.50
2022-12-15T11:26:37.173Z,-0.53
2022-12-15T11:29:16.604Z,-0.40
2022-12-15T11:31:45.345Z,-0.49
2022-12-15T11:34:18.478Z,-0.62
2022-12-15T11:37:00.313Z,-0.62
2022-12-15T11:40:11.274Z,-0.61
2022-12-15T11:42:53.276Z,-0.80
2022-12-15T11:45:27.265Z,-0.65
2022-12-15T11:48:01.808Z,-0.68
2022-12-15T11:50:37.426Z,-0.75
2022-12-15T11:53:15.055Z,-0.73
2022-12-15T11:55:50.062Z,-0.81
2022-12-15T11:58:36.055Z,-0.78
2022-12-15T12:01:21.358Z,-0.83
2022-12-15T12:04:19.484Z,-0.70
2022-12-15T12:06:58.587Z,-0.60
2022-12-15T12:09:34.116Z,-0.52
2022-12-15T12:12:30.396Z,-0.42
2022-12-15T12:15:15.804Z,-0.42
2022-12-15T12:17:48.851Z,-0.41
2022-12-15T12:20:34.953Z,-0.56
2022-12-15T12:23:22.331Z,-0.57
2022-12-15T12:26:11.309Z,-0.45
2022-12-15T12:29:02.672Z,-0.47
2022-12-15T12:31:41.334Z,-0.38
2022-12-15T12:34:21.667Z,-0.38
2022-12-15T12:36:50.747Z,-0.45
2022-12-15T12:39:24.803Z,-0.47
2022-12-15T12:42:03.919Z,-0.55
2022-12-15T12:44:38.470Z,-0.59
2022-12-15T12:47:26.237Z,-0.55
2022-12-15T12:49:58.471Z,-0.59
2022-12-15T12:52:30.187Z,-0.65
2022-12-15T12:55:02.039Z,-0.47
2022-12-15T12:57:28.614Z,-0.49
2022-12-15T13:00:06.382Z,-0.50
2022-12-15T13:02:38.049Z,-0.59
2022-12-15T13:05:25.055Z,-0.59
2022-12-15T13:08:05.105Z,-0.44
2022-12-15T13:10:36.729Z,-0.52
2022-12-15T13:13:18.563Z,-0.52
2022-12-15T13:15:51.026Z,-0.54
2022-12-15T13:18:19.857Z,-0.49
2022-12-15T13:20:48.855Z,-0.55
2022-12-15T13:23:23.642Z,-0.53
2022-12-15T13:25:56.815Z,-0.53
2022-12-15T13:28:39.208Z,-0.50
2022-12-15T13:31:21.322Z,-0.62
2022-12-15T13:33:59.473Z,-0.58
2022-12-15T13:36:41.166Z,-0.63
2022-12-15T13:39:16.895Z,-0.44
2022-12-15T13:42:15.391Z,-0.44
2022-12-15T13:44:54.470Z,-0.43
2022-12-15T13:47:26.288Z,-0.47
2022-12-15T13:50:08.555Z,-0.43
2022-12-15T13:55:40.105Z,-0.38
2022-12-15T13:58:14.786Z,-0.32
2022-12-15T14:00:50.877Z,-0.35
2022-12-15T14:03:17.776Z,-0.31
2022-12-15T14:05:59.241Z,-0.35
2022-12-15T14:08:30.310Z,-0.39
2022-12-15T14:11:16.701Z,-0.47
2022-12-15T14:13:54.167Z,-0.42
2022-12-15T14:16:22.676Z,-0.47
2022-12-15T14:19:16.247Z,-0.45
2022-12-15T14:22:00.462Z,-0.51
2022-12-15T14:24:40.841Z,-0.54
2022-12-15T14:27:08.472Z,-0.57
2022-12-15T14:29:35.189Z,-0.55
2022-12-15T14:32:02.346Z,-0.45
2022-12-15T14:34:36.887Z,-0.47
2022-12-15T14:37:08.901Z,-0.48
2022-12-15T14:39:41.052Z,-0.52
2022-12-15T14:42:12.526Z,-0.52
2022-12-15T14:44:48.064Z,-0.51
2022-12-15T14:47:29.204Z,-0.53
2022-12-15T14:49:58.512Z,-0.63
2022-12-15T14:52:27.507Z,-0.50
2022-12-15T14:54:59.784Z,-0.54
2022-12-15T14:57:37.788Z,-0.71
2022-12-15T15:00:35.584Z,-0.58
2022-12-15T15:03:19.144Z,-0.62
2022-12-15T15:05:59.992Z,-0.56
2022-12-15T15:08:33.346Z,-0.61
2022-12-15T15:11:26.847Z,-0.62
2022-12-15T15:14:03.889Z,-0.65
2022-12-15T15:16:31.152Z,-0.53
2022-12-15T15:19:01.718Z,-0.55
2022-12-15T15:21:30.577Z,-0.50
2022-12-15T15:24:01.784Z,-0.59
2022-12-15T15:26:29.825Z,-0.55
2022-12-15T15:28:57.176Z,-0.57
2022-12-15T15:31:41.512Z,-0.57
2022-12-15T15:34:08.933Z,-0.47
2022-12-15T15:36:38.703Z,-0.53
2022-12-15T15:39:13.614Z,-0.56
2022-12-15T15:41:40.330Z,-0.57
2022-12-15T15:44:14.830Z,-0.58
2022-12-15T15:46:52.431Z,-0.54
2022-12-15T15:49:21.661Z,-0.59
2022-12-15T15:51:49.005Z,-0.47
2022-12-15T15:54:19.364Z,-0.58
2022-12-15T15:56:46.186Z,-0.42
2022-12-15T15:59:15.229Z,-0.52
2022-12-15T16:01:43.508Z,-0.47
2022-12-15T16:04:10.368Z,-0.34
2022-12-15T16:06:39.733Z,-0.38
2022-12-15T16:09:14.703Z,-0.37
2022-12-15T16:11:41.561Z,-0.37
2022-12-15T16:14:15.968Z,-0.52
2022-12-15T16:16:43.170Z,-0.43
2022-12-15T16:19:12.003Z,-0.42
2022-12-15T16:21:40.380Z,-0.41
2022-12-15T16:24:15.741Z,-0.40
2022-12-15T16:26:47.809Z,-0.41
2022-12-15T16:29:16.622Z,-0.40
2022-12-15T16:31:46.722Z,-0.47
2022-12-15T16:34:16.565Z,-0.45
2022-12-15T16:36:43.951Z,-0.40
2022-12-15T16:39:33.105Z,-0.40
2022-12-15T16:42:00.309Z,-0.37
2022-12-15T16:44:29.267Z,-0.42
2022-12-15T16:46:57.131Z,-0.44
2022-12-15T16:49:24.096Z,-0.48
2022-12-15T16:51:54.865Z,-0.42
2022-12-15T16:54:28.401Z,-0.44
2022-12-15T16:56:57.137Z,-0.41
2022-12-15T16:59:34.863Z,-0.44
2022-12-15T17:02:17.169Z,-0.34
2022-12-15T17:04:44.073Z,-0.37
2022-12-15T17:07:19.802Z,-0.30
2022-12-15T17:09:47.520Z,-0.15
2022-12-15T17:12:17.542Z,-0.28
2022-12-15T17:14:45.054Z,-0.35
2022-12-15T17:17:16.471Z,-0.34
2022-12-15T17:19:57.810Z,-0.29
2022-12-15T17:22:26.874Z,-0.29
2022-12-15T17:24:53.580Z,-0.29
2022-12-15T17:27:28.084Z,-0.30
2022-12-15T17:30:00.559Z,-0.23
2022-12-15T17:32:27.285Z,-0.30
2022-12-15T17:34:53.969Z,-0.36
2022-12-15T17:37:20.848Z,-0.17
2022-12-15T17:39:51.402Z,-0.19
2022-12-15T17:42:22.103Z,-0.07
2022-12-15T17:44:49.420Z,-0.12
2022-12-15T17:47:20.038Z,-0.09
2022-12-15T17:49:47.385Z,-0.08
2022-12-15T17:52:20.319Z,-0.14
2022-12-15T17:54:47.145Z,-0.05
2022-12-15T17:57:13.834Z,-0.04
2022-12-15T17:59:40.738Z,-0.07
2022-12-15T18:02:12.067Z,0.04
2022-12-15T18:04:39.154Z,-0.01
2022-12-15T18:07:06.467Z,-0.04
2022-12-15T18:09:33.156Z,0.00
2022-12-15T18:11:59.873Z,-0.08
2022-12-15T18:14:27.383Z,-0.06
2022-12-15T18:16:54.019Z,-0.01
2022-12-15T18:19:20.695Z,-0.10
2022-12-15T18:21:47.469Z,0.05
2022-12-15T18:24:17.104Z,0.00
2022-12-15T18:26:44.290Z,-0.09
2022-12-15T18:29:17.948Z,0.00
2022-12-15T18:31:47.075Z,-0.04
2022-12-15T18:34:17.528Z,0.02
2022-12-15T18:36:44.949Z,0.03
2022-12-15T18:39:18.847Z,0.04
2022-12-15T18:41:46.156Z,0.02
2022-12-15T18:44:22.899Z,0.04
2022-12-15T18:46:49.743Z,0.13
2022-12-15T18:49:17.792Z,0.10
2022-12-15T18:51:46.336Z,0.32
2022-12-15T18:54:24.078Z,0.18
2022-12-15T18:56:51.683Z,0.29
2022-12-15T18:59:19.633Z,0.33
2022-12-15T19:01:48.125Z,0.23
2022-12-15T19:04:15.148Z,0.21
2022-12-15T19:06:42.434Z,0.35
2022-12-15T19:09:17.322Z,0.38
2022-12-15T19:12:15.803Z,0.36
2022-12-15T19:14:42.899Z,0.36
2022-12-15T19:17:42.173Z,0.28
2022-12-15T19:20:36.526Z,0.19
2022-12-15T19:23:04.277Z,0.31
2022-12-15T19:25:32.191Z,0.23
2022-12-15T19:27:59.937Z,0.29
2022-12-15T19:30:29.664Z,0.46
2022-12-15T19:32:57.470Z,0.43
2022-12-15T19:35:25.198Z,0.37
2022-12-15T19:37:55.255Z,0.40
2022-12-15T19:40:27.539Z,0.35
2022-12-15T19:42:55.332Z,0.20
2022-12-15T19:45:28.231Z,0.31
2022-12-15T19:47:55.532Z,0.21
2022-12-15T19:50:25.366Z,0.31
2022-12-15T19:53:01.229Z,0.24
2022-12-15T19:55:33.653Z,0.19
2022-12-15T19:58:06.432Z,0.28
2022-12-15T20:00:33.096Z,0.30
2022-12-15T20:03:02.040Z,0.25
2022-12-15T20:05:29.351Z,0.29
2022-12-15T20:07:56.180Z,0.32
2022-12-15T20:10:31.694Z,0.35
2022-12-15T20:13:00.569Z,0.35
2022-12-15T20:15:27.801Z,0.29
2022-12-15T20:17:58.120Z,0.29
2022-12-15T20:20:27.958Z,0.27
2022-12-15T20:22:58.961Z,0.46
2022-12-15T20:25:29.517Z,0.25
2022-12-15T20:27:57.348Z,0.33
2022-12-15T20:30:35.494Z,0.44
2022-12-15T20:33:03.965Z,0.18
2022-12-15T20:35:33.288Z,0.17
2022-12-15T20:38:02.596Z,0.25
2022-12-15T20:40:30.710Z,0.25
2022-12-15T20:42:57.624Z,0.25
2022-12-15T20:45:26.674Z,0.24
2022-12-15T20:47:55.962Z,0.30
2022-12-15T20:50:25.390Z,0.27
2022-12-15T20:52:52.714Z,0.29
2022-12-15T20:55:21.720Z,0.36
2022-12-15T20:57:49.067Z,0.22
2022-12-15T21:00:18.054Z,0.48
2022-12-15T21:02:46.354Z,0.39
2022-12-15T21:05:22.567Z,0.51
2022-12-15T21:07:49.718Z,0.39
2022-12-15T21:10:18.221Z,0.26
2022-12-15T21:12:46.721Z,0.24
2022-12-15T21:15:31.372Z,0.31
2022-12-15T21:18:25.924Z,0.25
2022-12-15T21:20:49.720Z,0.38
2022-12-15T21:23:27.409Z,0.56
2022-12-15T21:25:57.789Z,0.38
2022-12-15T21:28:25.118Z,0.43
2022-12-15T21:30:52.312Z,0.41
2022-12-15T21:33:19.092Z,0.44
2022-12-15T21:35:47.558Z,0.41
2022-12-15T21:38:30.052Z,0.58
2022-12-15T21:43:43.643Z,0.77
2022-12-15T21:46:27.579Z,0.51
2022-12-15T21:49:14.307Z,0.42
2022-12-15T21:51:55.408Z,0.55
2022-12-15T21:54:31.014Z,0.42
2022-12-15T21:56:59.028Z,0.63
2022-12-15T21:59:29.266Z,0.58
2022-12-15T22:01:56.437Z,0.72
2022-12-15T22:04:28.800Z,0.46
2022-12-15T22:06:55.576Z,0.41
2022-12-15T22:09:22.313Z,0.38
2022-12-15T22:11:51.427Z,0.38
2022-12-15T22:14:28.478Z,0.34
2022-12-15T22:16:55.817Z,0.26
2022-12-15T22:19:23.442Z,0.30
2022-12-15T22:21:50.673Z,0.22
2022-12-15T22:24:20.924Z,0.25
2022-12-15T22:26:47.885Z,0.22
2022-12-15T22:29:21.168Z,0.21
2022-12-15T22:31:49.624Z,0.22
2022-12-15T22:34:19.097Z,0.35
2022-12-15T22:36:45.883Z,0.31
2022-12-15T22:39:14.729Z,0.45
2022-12-15T22:41:43.816Z,0.34
2022-12-15T22:44:26.077Z,0.35
2022-12-15T22:46:55.421Z,0.33
2022-12-15T22:49:27.591Z,0.47
2022-12-15T22:51:55.088Z,0.40
2022-12-15T22:54:26.883Z,0.37
2022-12-15T22:57:05.408Z,0.36
2022-12-15T22:59:41.315Z,0.35
2022-12-15T23:02:09.263Z,0.46
2022-12-15T23:04:36.504Z,0.46
2022-12-15T23:07:07.536Z,0.50
2022-12-15T23:09:34.189Z,0.43
2022-12-15T23:12:00.945Z,0.51
2022-12-15T23:14:46.627Z,0.57
2022-12-15T23:17:14.227Z,0.49
2022-12-15T23:19:47.460Z,0.76
2022-12-15T23:22:14.182Z,0.84
2022-12-15T23:24:40.964Z,0.91
2022-12-15T23:27:11.725Z,0.65
2022-12-15T23:29:38.491Z,0.54
2022-12-15T23:32:05.339Z,0.57
2022-12-15T23:34:32.051Z,0.74
2022-12-15T23:36:58.661Z,0.66
2022-12-15T23:39:25.764Z,0.56
2022-12-15T23:41:52.408Z,0.76
2022-12-15T23:44:19.021Z,0.56
2022-12-15T23:46:46.842Z,0.57
2022-12-15T23:49:13.776Z,0.47
2022-12-15T23:51:40.442Z,0.50
2022-12-15T23:54:08.528Z,0.71
2022-12-15T23:56:35.551Z,0.60
2022-12-15T23:59:02.315Z,0.48
